KEAR

Kearney Regional Airport

Kearney, Nebraska, USA
METAR KEAR 211557Z AUTO 14012KT 10SM OVC009 M08/M10 A2987 RMK AO2 SLP150 T10831100 FZRANO
Observed Flight Rules
Jan-21 @ 15:57 UTC (52 minutes ago) Instrument Flight Rules
Wind Visibility Clouds
140° at 12 knots 10 miles
  • Overcast at 900' AGL
Temperatures Readings
Current -8°C / 18°F
Dewpoint -10°C / 14°F
Humidity 86%
Altimeter 29.87" Hg
Pressure 1015 hPa
Elevation 649
METAR KEAR 211557Z AUTO 14012KT 10SM OVC009 M08/M10 A2987 RMK AO2 SLP150 T10831100 FZRANO
Observed Flight Rules
Jan-21 @ 15:57 UTC
(52 minutes ago)
IFR
Wind Visibility
140° at 12 knots 10 miles
Clouds
  • Overcast at 900' AGL
Temperature Dewpoint
-8°C / 18°F -10°C / 14°F
Humidity Altimeter Pressure
86% 29.87" Hg 1015 hPa